Time;durP1;ratioP1;P1;durP2;ratioP2;P2;SDS_P1;SDS_P2;PMS_P1;PMS_P2;Temp;Humidity;BMP_temperature;BMP_pressure;BME280_temperature;BME280_humidity;BME280_pressure;Samples;Min_cycle;Max_cycle;Signal;HPM_P1;HPM_P2
2023/02/14 00:02:15;;;;;;;11.60;10.40;;;8.20;99.90;;;;;;5035777;28;20409;-67
2023/02/14 00:04:43;;;;;;;13.57;11.43;;;8.10;99.90;;;;;;5037369;28;20456;-69
2023/02/14 00:07:10;;;;;;;14.53;11.40;;;8.10;99.90;;;;;;5050489;28;20423;-67
2023/02/14 00:09:36;;;;;;;13.07;11.63;;;8.00;99.90;;;;;;5046607;28;20425;-68
2023/02/14 00:12:02;;;;;;;12.80;11.10;;;8.00;99.90;;;;;;5050686;28;20436;-68
2023/02/14 00:17:12;;;;;;;10.20;9.20;;;8.00;99.90;;;;;;5054589;28;20543;-67
2023/02/14 00:19:38;;;;;;;11.90;9.80;;;8.00;99.90;;;;;;5021210;28;20547;-68
2023/02/14 00:22:04;;;;;;;11.43;9.83;;;8.00;99.90;;;;;;5043346;28;20597;-69
2023/02/14 00:24:29;;;;;;;14.97;10.27;;;7.90;99.90;;;;;;5054778;28;20182;-73
2023/02/14 00:26:55;;;;;;;11.63;10.10;;;7.50;99.90;;;;;;5038324;28;20192;-67
2023/02/14 00:29:24;;;;;;;12.27;9.10;;;7.40;99.90;;;;;;5021187;28;20201;-68
2023/02/14 00:31:50;;;;;;;10.23;9.23;;;7.20;99.90;;;;;;5039180;28;20213;-67
2023/02/14 00:34:17;;;;;;;11.53;8.87;;;7.30;99.90;;;;;;5048242;28;20470;-68
2023/02/14 00:36:43;;;;;;;10.30;8.50;;;7.40;99.90;;;;;;5047033;28;20646;-67
2023/02/14 00:39:11;;;;;;;9.97;8.87;;;7.50;99.90;;;;;;5050568;28;20484;-67
2023/02/14 00:41:38;;;;;;;14.73;9.53;;;7.60;99.90;;;;;;5038563;28;20820;-67
2023/02/14 00:44:04;;;;;;;13.13;8.23;;;7.80;99.90;;;;;;5061211;28;20471;-67
2023/02/14 00:46:30;;;;;;;11.40;9.43;;;7.80;99.90;;;;;;5060409;28;20451;-82
2023/02/14 00:48:59;;;;;;;10.23;8.67;;;7.80;99.90;;;;;;5062888;28;20890;-67
2023/02/14 00:51:25;;;;;;;12.57;9.60;;;7.80;99.90;;;;;;5072793;28;20458;-67
2023/02/14 00:53:50;;;;;;;10.40;9.30;;;7.80;99.90;;;;;;5069962;28;20480;-67
2023/02/14 00:56:17;;;;;;;10.10;9.10;;;7.80;99.90;;;;;;5053837;28;20490;-68
2023/02/14 00:58:43;;;;;;;10.00;9.00;;;7.80;99.90;;;;;;5063022;28;20670;-68
2023/02/14 01:01:09;;;;;;;10.67;9.43;;;7.70;99.90;;;;;;5055371;28;20917;-67
2023/02/14 01:03:35;;;;;;;13.13;9.23;;;7.70;99.90;;;;;;5053419;28;20663;-67
2023/02/14 01:06:02;;;;;;;11.37;8.90;;;7.70;99.90;;;;;;5053721;28;20513;-68
2023/02/14 01:08:28;;;;;;;9.70;8.80;;;7.60;99.90;;;;;;5054013;28;20492;-68
2023/02/14 01:10:53;;;;;;;14.27;9.13;;;7.60;99.90;;;;;;5052670;28;20904;-77
2023/02/14 01:13:19;;;;;;;9.50;8.50;;;7.60;99.90;;;;;;5058456;28;20193;-68
2023/02/14 01:15:48;;;;;;;9.77;8.80;;;7.60;99.90;;;;;;5066926;28;20181;-68
2023/02/14 01:18:15;;;;;;;13.07;8.93;;;7.50;99.90;;;;;;5063011;28;20566;-67
2023/02/14 01:20:41;;;;;;;10.87;9.30;;;7.50;99.90;;;;;;5051229;28;20928;-68
2023/02/14 01:23:07;;;;;;;8.93;7.57;;;7.50;99.90;;;;;;5057091;28;20449;-67
2023/02/14 01:25:34;;;;;;;11.40;8.47;;;7.50;99.90;;;;;;5064382;28;20529;-78
2023/02/14 01:28:00;;;;;;;9.83;8.63;;;7.40;99.90;;;;;;5053528;28;20420;-67
2023/02/14 01:30:26;;;;;;;10.20;8.60;;;7.40;99.90;;;;;;5054034;28;20450;-67
2023/02/14 01:32:51;;;;;;;9.60;8.20;;;7.40;99.90;;;;;;5052261;28;20187;-67
2023/02/14 01:35:17;;;;;;;11.50;8.80;;;7.40;99.90;;;;;;5053311;28;20177;-67
2023/02/14 01:37:43;;;;;;;11.53;8.90;;;7.40;99.90;;;;;;5052815;28;20665;-68
2023/02/14 01:40:10;;;;;;;10.50;8.60;;;7.40;99.90;;;;;;5051536;28;20184;-66
2023/02/14 01:42:36;;;;;;;14.40;8.60;;;7.40;99.90;;;;;;5032216;28;20529;-80
2023/02/14 01:45:14;;;;;;;9.10;8.20;;;7.30;99.90;;;;;;5033324;28;20412;-67
2023/02/14 01:47:42;;;;;;;10.10;7.73;;;7.30;99.90;;;;;;5033399;28;20474;-67
2023/02/14 01:50:13;;;;;;;8.83;8.03;;;7.30;99.90;;;;;;5015777;28;20416;-67
2023/02/14 01:52:53;;;;;;;9.53;8.50;;;7.30;99.90;;;;;;5032715;28;20936;-69
2023/02/14 01:55:26;;;;;;;9.53;7.87;;;7.20;99.90;;;;;;5033345;28;20399;-67
2023/02/14 01:58:03;;;;;;;9.90;8.60;;;7.20;99.90;;;;;;5032712;28;20463;-67
2023/02/14 02:03:16;;;;;;;10.53;9.10;;;7.10;99.90;;;;;;5033260;28;20435;-68
2023/02/14 02:05:47;;;;;;;8.33;7.40;;;7.10;99.90;;;;;;5032623;28;20447;-67
2023/02/14 02:08:13;;;;;;;14.20;8.60;;;7.10;99.90;;;;;;5032845;28;20888;-67
2023/02/14 02:10:39;;;;;;;12.03;9.43;;;7.10;99.90;;;;;;5032511;28;20496;-79
2023/02/14 02:13:07;;;;;;;11.43;8.63;;;7.10;99.90;;;;;;5033137;28;20932;-68
2023/02/14 02:15:46;;;;;;;11.10;9.40;;;7.10;99.90;;;;;;5032929;28;20180;-67
2023/02/14 02:18:36;;;;;;;11.27;8.57;;;7.10;99.90;;;;;;5032637;28;20504;-67
2023/02/14 02:21:39;;;;;;;9.53;8.67;;;7.00;99.90;;;;;;5032898;28;20406;-67
2023/02/14 02:24:17;;;;;;;11.50;10.30;;;7.10;99.90;;;;;;5032401;28;20416;-67
2023/02/14 02:27:03;;;;;;;11.20;9.33;;;7.10;99.90;;;;;;5032036;28;20426;-67
2023/02/14 02:29:51;;;;;;;10.30;9.20;;;7.00;99.90;;;;;;5032094;28;20435;-67
2023/02/14 02:32:47;;;;;;;10.87;9.70;;;7.00;99.90;;;;;;5032519;28;20381;-67
2023/02/14 02:35:27;;;;;;;9.93;9.03;;;7.00;99.90;;;;;;5032892;28;20404;-67
2023/02/14 02:38:27;;;;;;;10.33;9.33;;;7.00;99.90;;;;;;5041351;28;20810;-67
2023/02/14 02:41:14;;;;;;;10.63;8.97;;;6.90;99.90;;;;;;5006167;28;20452;-68
2023/02/14 02:43:54;;;;;;;11.23;8.97;;;6.90;99.90;;;;;;5072001;28;20410;-79
2023/02/14 02:58:31;;;;;;;12.87;8.80;;;6.80;99.90;;;;;;5072177;28;20465;-67
2023/02/14 03:01:00;;;;;;;12.47;9.20;;;6.80;99.90;;;;;;5070590;28;20398;-68
2023/02/14 03:06:13;;;;;;;9.50;8.47;;;6.70;99.90;;;;;;5072268;28;20710;-67
2023/02/14 03:08:39;;;;;;;8.70;7.80;;;6.70;99.90;;;;;;5072035;28;20422;-78
2023/02/14 03:11:04;;;;;;;11.90;8.60;;;6.70;99.90;;;;;;5070281;28;20182;-68
2023/02/14 03:13:54;;;;;;;9.63;8.47;;;6.70;99.90;;;;;;5072320;28;20222;-68
2023/02/14 03:16:32;;;;;;;10.23;8.60;;;6.60;99.90;;;;;;5071204;28;20198;-68
2023/02/14 03:19:19;;;;;;;9.47;8.47;;;6.60;99.90;;;;;;5070104;28;20427;-68
2023/02/14 03:21:55;;;;;;;10.90;8.70;;;6.60;99.90;;;;;;5071715;28;20393;-68
2023/02/14 03:24:31;;;;;;;9.20;8.30;;;6.50;99.90;;;;;;5070514;28;20522;-68
2023/02/14 03:27:13;;;;;;;9.50;8.13;;;6.50;99.90;;;;;;5070062;28;20493;-68
2023/02/14 03:30:00;;;;;;;10.83;8.00;;;6.50;99.90;;;;;;5054757;28;20410;-67
2023/02/14 03:32:48;;;;;;;9.47;8.50;;;6.50;99.90;;;;;;5051611;28;20439;-66
2023/02/14 03:35:30;;;;;;;9.10;8.20;;;6.50;99.90;;;;;;5052162;28;20718;-67
2023/02/14 03:38:04;;;;;;;11.03;7.80;;;6.50;99.90;;;;;;5051134;28;20439;-67
2023/02/14 03:40:39;;;;;;;10.50;8.37;;;6.50;99.90;;;;;;5048304;28;20517;-67
2023/02/14 03:43:29;;;;;;;9.50;7.68;;;6.50;99.90;;;;;;5031149;28;20522;-67
2023/02/14 03:46:02;;;;;;;13.17;9.70;;;6.40;99.90;;;;;;5032060;28;20206;-67
2023/02/14 03:48:30;;;;;;;9.03;8.00;;;6.40;99.90;;;;;;5031804;28;20381;-67
2023/02/14 03:50:57;;;;;;;10.67;8.67;;;6.40;99.90;;;;;;5031017;28;20526;-67
2023/02/14 03:53:26;;;;;;;9.15;8.18;;;6.40;99.90;;;;;;5031815;28;20484;-67
2023/02/14 03:56:21;;;;;;;13.70;8.93;;;6.40;99.90;;;;;;5012993;28;20230;-66
2023/02/14 03:58:52;;;;;;;9.20;8.30;;;6.40;99.90;;;;;;5031030;28;20564;-67
2023/02/14 04:01:20;;;;;;;10.32;9.23;;;6.40;99.90;;;;;;5013973;28;20453;-67
2023/02/14 04:03:47;;;;;;;9.07;8.10;;;6.40;99.90;;;;;;5031660;28;20188;-78
2023/02/14 04:06:15;;;;;;;9.37;8.00;;;6.40;99.90;;;;;;5046847;28;20391;-69
2023/02/14 04:08:41;;;;;;;11.67;8.67;;;6.30;99.90;;;;;;5039631;28;20484;-67
2023/02/14 04:11:07;;;;;;;10.37;9.30;;;6.30;99.90;;;;;;5051907;28;20445;-67
2023/02/14 04:13:35;;;;;;;11.60;8.60;;;6.30;99.90;;;;;;5055217;28;20243;-68
2023/02/14 04:16:01;;;;;;;12.73;9.30;;;6.30;99.90;;;;;;5054123;28;20265;-67
2023/02/14 04:21:11;;;;;;;10.30;9.10;;;6.40;99.90;;;;;;5034976;28;20399;-67
2023/02/14 04:23:37;;;;;;;9.37;8.40;;;6.40;99.90;;;;;;5035069;28;20396;-67
2023/02/14 04:26:03;;;;;;;9.60;8.40;;;6.40;99.90;;;;;;5034265;28;20637;-67
2023/02/14 04:28:30;;;;;;;9.50;8.60;;;6.40;99.90;;;;;;5035082;28;20183;-67
2023/02/14 04:30:56;;;;;;;12.87;8.80;;;6.40;99.90;;;;;;5034137;28;20404;-67
2023/02/14 04:33:21;;;;;;;9.53;8.57;;;6.40;99.90;;;;;;5044699;28;20430;-67
2023/02/14 04:35:48;;;;;;;9.87;8.60;;;6.40;99.90;;;;;;5021058;28;20232;-78
2023/02/14 04:38:13;;;;;;;10.93;9.07;;;6.50;99.90;;;;;;5054744;28;20199;-67
2023/02/14 04:40:39;;;;;;;12.03;11.10;;;6.50;99.90;;;;;;5053617;28;20477;-67
2023/02/14 04:43:06;;;;;;;9.17;8.37;;;6.50;99.90;;;;;;5036088;28;20449;-67
2023/02/14 04:45:32;;;;;;;11.93;10.80;;;6.50;99.90;;;;;;5054874;28;20174;-67
2023/02/14 04:47:58;;;;;;;10.23;9.20;;;6.50;99.90;;;;;;5054060;28;20422;-67
2023/02/14 04:50:24;;;;;;;11.53;10.43;;;6.50;99.90;;;;;;5054251;28;20438;-67
2023/02/14 04:52:51;;;;;;;10.00;9.10;;;6.40;99.90;;;;;;5045956;28;20402;-70
2023/02/14 04:55:17;;;;;;;10.53;9.43;;;6.40;99.90;;;;;;5032186;28;20436;-67
2023/02/14 04:57:43;;;;;;;10.90;8.37;;;6.30;99.90;;;;;;5054424;28;20437;-67
2023/02/14 05:00:09;;;;;;;9.53;8.30;;;6.30;99.90;;;;;;5053595;28;20584;-67
2023/02/14 05:02:35;;;;;;;10.03;8.60;;;6.30;99.90;;;;;;5047974;28;20175;-66
2023/02/14 05:05:00;;;;;;;9.23;8.33;;;6.30;99.90;;;;;;5023244;28;20413;-67
2023/02/14 05:07:26;;;;;;;8.83;7.83;;;6.30;99.90;;;;;;5048796;28;20286;-67
2023/02/14 05:09:52;;;;;;;11.90;8.87;;;6.20;99.90;;;;;;5053369;28;20269;-68
2023/02/14 05:12:18;;;;;;;9.57;8.67;;;6.20;99.90;;;;;;5035113;28;20182;-67
2023/02/14 05:14:44;;;;;;;10.70;9.57;;;6.20;99.90;;;;;;5054090;28;20185;-68
2023/02/14 05:17:09;;;;;;;9.55;8.65;;;6.20;99.90;;;;;;5053035;28;20413;-67
2023/02/14 05:19:35;;;;;;;11.13;9.93;;;6.20;99.90;;;;;;5053264;28;20241;-67
2023/02/14 05:22:01;;;;;;;11.20;9.53;;;6.10;99.90;;;;;;5053194;28;20175;-68
2023/02/14 05:24:27;;;;;;;9.37;8.23;;;6.10;99.90;;;;;;5053619;28;20179;-67
2023/02/14 05:26:52;;;;;;;14.27;9.23;;;6.10;99.90;;;;;;5052784;28;20224;-68
2023/02/14 05:29:18;;;;;;;11.30;9.80;;;6.20;99.90;;;;;;5036073;28;20265;-67
2023/02/14 05:31:44;;;;;;;11.50;9.50;;;6.20;99.90;;;;;;5046798;28;20579;-68
2023/02/14 05:34:10;;;;;;;10.10;9.10;;;6.20;99.90;;;;;;5033681;28;20611;-67
2023/02/14 05:36:36;;;;;;;10.13;9.13;;;6.20;99.90;;;;;;5016649;28;20251;-67
2023/02/14 05:39:03;;;;;;;12.53;9.53;;;6.20;99.90;;;;;;5033201;28;20900;-68
2023/02/14 05:41:29;;;;;;;10.20;8.48;;;6.20;99.90;;;;;;5033575;28;20216;-67
2023/02/14 05:43:54;;;;;;;12.77;11.57;;;6.30;99.90;;;;;;5033657;28;20674;-67
2023/02/14 05:46:20;;;;;;;11.17;9.70;;;6.20;99.90;;;;;;5037154;28;20426;-67
2023/02/14 05:48:46;;;;;;;11.07;8.97;;;6.30;99.90;;;;;;5039141;28;20174;-68
2023/02/14 05:51:12;;;;;;;13.47;10.80;;;6.20;99.90;;;;;;5033565;28;20714;-68
2023/02/14 05:53:37;;;;;;;11.33;9.33;;;6.10;99.90;;;;;;5053405;28;20182;-68
2023/02/14 05:56:04;;;;;;;13.00;9.53;;;6.20;99.90;;;;;;5051543;28;20418;-68
2023/02/14 05:58:30;;;;;;;9.05;8.15;;;6.10;99.90;;;;;;5033133;28;20243;-67
2023/02/14 06:00:57;;;;;;;9.27;8.45;;;6.10;99.90;;;;;;5038307;28;20642;-68
2023/02/14 06:03:23;;;;;;;12.40;11.10;;;6.00;99.90;;;;;;5041066;28;20178;-72
2023/02/14 06:05:48;;;;;;;12.00;9.35;;;6.00;99.90;;;;;;5046821;28;20186;-69
2023/02/14 06:08:14;;;;;;;11.17;10.07;;;6.00;99.90;;;;;;5014461;28;20194;-69
2023/02/14 06:10:40;;;;;;;11.03;9.83;;;6.00;99.90;;;;;;5036451;28;20179;-66
2023/02/14 06:13:09;;;;;;;11.13;10.07;;;6.00;99.90;;;;;;5046684;28;20193;-68
2023/02/14 06:15:38;;;;;;;10.60;8.70;;;6.00;99.90;;;;;;5053104;28;20231;-68
2023/02/14 06:18:04;;;;;;;9.60;8.63;;;6.10;99.90;;;;;;5045274;28;20236;-71
2023/02/14 06:20:31;;;;;;;11.32;8.90;;;6.00;99.90;;;;;;5037549;28;20191;-69
2023/02/14 06:22:57;;;;;;;10.52;7.95;;;5.90;99.90;;;;;;5037878;28;20256;-69
2023/02/14 06:25:24;;;;;;;13.17;9.50;;;5.90;99.90;;;;;;5052989;28;20174;-68
2023/02/14 06:27:54;;;;;;;10.10;8.40;;;5.90;99.90;;;;;;5052840;28;20174;-78
2023/02/14 06:30:20;;;;;;;9.87;8.77;;;5.90;99.90;;;;;;5032883;28;20182;-70
2023/02/14 06:32:46;;;;;;;10.80;9.67;;;5.90;99.90;;;;;;5046059;28;20445;-68
2023/02/14 06:35:12;;;;;;;10.93;9.87;;;5.90;99.90;;;;;;5050883;28;20443;-68
2023/02/14 06:37:40;;;;;;;11.73;10.20;;;5.90;99.90;;;;;;5046512;28;20269;-68
2023/02/14 06:40:06;;;;;;;15.03;10.10;;;5.90;99.90;;;;;;5024131;28;20775;-68
2023/02/14 06:42:34;;;;;;;13.13;9.93;;;5.90;99.90;;;;;;5032830;28;20440;-68
2023/02/14 06:45:01;;;;;;;11.80;10.40;;;5.90;99.90;;;;;;5049253;28;20293;-69
2023/02/14 06:47:29;;;;;;;13.00;10.98;;;5.90;99.90;;;;;;5041096;28;20422;-71
2023/02/14 06:49:54;;;;;;;12.70;10.60;;;5.90;99.90;;;;;;5013518;28;20176;-74
2023/02/14 06:52:20;;;;;;;14.03;11.30;;;5.90;99.90;;;;;;5014103;28;20237;-75
2023/02/14 06:54:46;;;;;;;14.07;11.33;;;5.90;99.90;;;;;;5032113;28;20189;-69
2023/02/14 06:57:12;;;;;;;15.83;12.83;;;5.90;99.90;;;;;;5050718;28;20388;-69
2023/02/14 06:59:37;;;;;;;14.53;12.17;;;5.90;99.90;;;;;;5052450;28;20206;-69
2023/02/14 07:02:03;;;;;;;13.70;11.80;;;5.90;99.90;;;;;;5024713;28;20553;-69
2023/02/14 07:04:29;;;;;;;15.67;11.63;;;5.90;99.90;;;;;;5050849;28;20211;-72
2023/02/14 07:06:55;;;;;;;17.60;12.20;;;6.00;99.90;;;;;;5033955;28;20209;-72
2023/02/14 07:09:21;;;;;;;17.20;11.70;;;6.00;99.90;;;;;;5052387;28;20424;-71
2023/02/14 07:11:46;;;;;;;14.60;11.60;;;6.00;99.90;;;;;;5037611;28;20541;-72
2023/02/14 07:14:13;;;;;;;15.10;12.20;;;6.10;99.90;;;;;;5033155;28;20191;-72
2023/02/14 07:16:38;;;;;;;15.00;12.80;;;6.20;99.90;;;;;;5033189;28;20249;-72
2023/02/14 07:19:04;;;;;;;13.87;11.10;;;6.20;99.90;;;;;;5037729;28;20902;-70
2023/02/14 07:21:30;;;;;;;16.53;12.03;;;6.40;99.90;;;;;;5052301;28;20204;-69
2023/02/14 07:23:56;;;;;;;12.20;10.23;;;6.50;99.90;;;;;;5049406;28;20192;-76
2023/02/14 07:26:21;;;;;;;14.70;12.60;;;6.50;99.90;;;;;;5042398;28;20180;-70
2023/02/14 07:28:48;;;;;;;16.43;13.20;;;6.50;99.90;;;;;;5014733;28;20415;-69
2023/02/14 07:31:14;;;;;;;15.90;11.70;;;6.60;99.90;;;;;;5045411;28;20212;-70
2023/02/14 07:33:40;;;;;;;17.40;12.90;;;6.60;99.90;;;;;;5052211;28;20422;-69
2023/02/14 07:36:07;;;;;;;14.80;12.23;;;6.60;99.90;;;;;;5051628;28;20418;-69
2023/02/14 07:38:34;;;;;;;16.13;13.63;;;6.60;99.90;;;;;;5052146;28;20207;-69
2023/02/14 07:41:00;;;;;;;17.20;15.50;;;6.60;99.90;;;;;;5052159;28;20462;-70
2023/02/14 07:43:26;;;;;;;14.57;12.13;;;6.70;99.90;;;;;;5055026;28;20438;-69
2023/02/14 07:45:51;;;;;;;20.37;11.93;;;6.70;99.90;;;;;;5056011;28;20623;-69
2023/02/14 07:48:17;;;;;;;13.63;12.23;;;6.80;99.90;;;;;;5055495;28;20204;-70
2023/02/14 07:50:43;;;;;;;15.03;12.07;;;6.80;99.90;;;;;;5055979;28;20208;-69
2023/02/14 07:53:09;;;;;;;18.50;13.70;;;6.80;99.90;;;;;;5041654;28;20180;-71
2023/02/14 07:55:34;;;;;;;17.50;15.83;;;6.90;99.90;;;;;;5051059;28;20195;-71
2023/02/14 07:58:00;;;;;;;19.43;16.53;;;7.60;99.90;;;;;;5054980;28;20486;-71
2023/02/14 08:00:26;;;;;;;18.13;14.57;;;8.50;99.90;;;;;;5042205;28;20197;-71
2023/02/14 08:02:54;;;;;;;18.50;16.23;;;9.20;99.90;;;;;;5053225;28;20827;-71
2023/02/14 08:05:21;;;;;;;18.37;15.30;;;9.80;99.90;;;;;;5046490;28;20474;-71
2023/02/14 08:07:47;;;;;;;17.60;15.70;;;10.50;99.90;;;;;;5026426;28;20479;-72
2023/02/14 08:10:13;;;;;;;19.47;15.77;;;11.00;99.90;;;;;;5041937;28;20442;-72
2023/02/14 08:18:19;;;;;;;18.70;16.50;;;12.30;99.90;;;;;;5043891;28;20462;-72
2023/02/14 08:20:47;;;;;;;16.77;14.73;;;12.70;99.30;;;;;;5042731;28;20424;-71
2023/02/14 08:23:13;;;;;;;17.53;13.93;;;12.90;98.80;;;;;;5044999;28;20439;-74
2023/02/14 08:25:39;;;;;;;19.83;16.23;;;13.10;96.10;;;;;;5025213;28;20428;-70
2023/02/14 08:28:05;;;;;;;19.60;16.10;;;13.30;97.50;;;;;;5025247;28;20434;-70
2023/02/14 08:30:31;;;;;;;16.90;14.23;;;13.10;93.00;;;;;;5045873;28;20186;-70
2023/02/14 08:32:57;;;;;;;22.87;14.80;;;12.70;92.00;;;;;;5046665;28;20426;-70
2023/02/14 08:35:23;;;;;;;19.63;16.60;;;12.20;92.20;;;;;;5053620;28;20426;-69
2023/02/14 08:37:49;;;;;;;16.13;12.83;;;11.80;93.10;;;;;;5016706;28;20413;-69
2023/02/14 08:40:14;;;;;;;532.20;349.63;;;11.60;94.30;;;;;;5045893;28;20515;-69
2023/02/14 08:42:40;;;;;;;90.23;49.20;;;11.30;95.50;;;;;;5004931;28;20229;-69
2023/02/14 08:45:06;;;;;;;45.93;32.30;;;11.10;96.70;;;;;;4999656;28;20193;-69
2023/02/14 08:47:37;;;;;;;25.83;17.70;;;10.90;97.50;;;;;;5022162;28;20599;-68
2023/02/14 08:50:08;;;;;;;163.00;89.43;;;10.70;98.70;;;;;;5026541;28;20474;-85
2023/02/14 08:52:34;;;;;;;439.00;252.80;;;10.50;99.90;;;;;;5040914;28;20435;-68
2023/02/14 08:55:01;;;;;;;72.10;42.83;;;10.40;99.90;;;;;;5050771;28;20439;-72
2023/02/14 08:57:27;;;;;;;24.67;17.10;;;10.40;99.90;;;;;;5016860;28;20213;-68
2023/02/14 08:59:53;;;;;;;15.97;13.97;;;10.40;99.90;;;;;;5041948;28;20545;-68
2023/02/14 09:02:19;;;;;;;17.47;13.20;;;10.30;99.90;;;;;;5036831;28;20531;-69
2023/02/14 09:04:44;;;;;;;16.20;14.40;;;10.30;99.90;;;;;;5052729;28;20626;-68
2023/02/14 09:07:11;;;;;;;16.27;13.40;;;10.40;99.90;;;;;;5032194;28;20206;-68
2023/02/14 09:09:37;;;;;;;16.00;13.30;;;10.50;99.90;;;;;;5035715;28;20190;-68
2023/02/14 09:12:05;;;;;;;15.17;12.33;;;10.50;99.90;;;;;;5053916;28;20890;-68
2023/02/14 09:14:38;;;;;;;16.80;13.87;;;10.50;99.90;;;;;;5054387;28;20521;-68
2023/02/14 09:17:04;;;;;;;17.43;14.50;;;10.60;99.90;;;;;;5053899;28;20433;-79
2023/02/14 09:19:35;;;;;;;17.53;15.40;;;10.70;99.90;;;;;;5054282;28;20462;-68
2023/02/14 09:22:02;;;;;;;17.30;13.93;;;10.80;99.90;;;;;;5054323;28;20404;-85
2023/02/14 09:24:32;;;;;;;17.60;14.57;;;10.90;99.90;;;;;;5019478;28;20420;-68
2023/02/14 09:26:59;;;;;;;21.17;15.67;;;11.00;99.90;;;;;;5054179;28;20428;-68
2023/02/14 09:29:25;;;;;;;14.90;12.83;;;11.20;99.90;;;;;;5049514;28;20433;-68
2023/02/14 09:31:55;;;;;;;16.80;12.80;;;11.50;99.90;;;;;;5054092;28;20408;-68
2023/02/14 09:34:21;;;;;;;14.63;12.20;;;11.70;99.90;;;;;;5021537;28;20656;-68
2023/02/14 09:36:47;;;;;;;15.47;13.93;;;12.10;99.90;;;;;;5033860;28;20419;-68
2023/02/14 09:39:13;;;;;;;14.10;12.60;;;12.40;99.90;;;;;;5033265;28;20822;-68
2023/02/14 09:42:05;;;;;;;13.47;11.10;;;12.70;99.90;;;;;;5049946;28;20320;-68
2023/02/14 09:44:44;;;;;;;14.17;11.53;;;13.00;97.30;;;;;;5054017;28;20167;-68
2023/02/14 09:47:48;;;;;;;14.70;10.40;;;13.30;96.50;;;;;;5035568;28;20434;-68
2023/02/14 09:50:30;;;;;;;11.73;10.17;;;13.60;94.50;;;;;;5002447;28;20489;-68
2023/02/14 09:53:03;;;;;;;12.40;11.20;;;13.90;94.90;;;;;;5035939;28;20410;-68
2023/02/14 09:55:50;;;;;;;14.30;11.57;;;14.20;94.20;;;;;;5035904;28;20450;-68
2023/02/14 09:58:22;;;;;;;14.23;12.73;;;14.50;94.00;;;;;;5052774;28;20456;-68
2023/02/14 10:01:08;;;;;;;13.57;12.27;;;14.80;92.90;;;;;;5035790;28;20854;-68
2023/02/14 10:03:44;;;;;;;10.83;9.83;;;15.10;93.00;;;;;;5053393;28;20406;-68
2023/02/14 10:06:32;;;;;;;14.20;12.63;;;15.40;92.50;;;;;;5052924;28;20529;-68
2023/02/14 10:09:23;;;;;;;10.23;9.23;;;15.60;90.70;;;;;;5053062;28;20457;-68
2023/02/14 10:11:49;;;;;;;10.57;9.57;;;15.90;88.60;;;;;;5050139;28;20446;-69
2023/02/14 10:14:26;;;;;;;10.90;9.87;;;16.10;86.90;;;;;;5028941;28;20468;-68
2023/02/14 10:17:15;;;;;;;9.60;8.70;;;16.30;83.70;;;;;;5015611;28;20412;-68
2023/02/14 10:20:04;;;;;;;8.63;7.73;;;16.30;80.30;;;;;;5015465;28;20488;-69
2023/02/14 10:22:50;;;;;;;9.53;8.73;;;16.40;81.30;;;;;;5032835;28;20432;-68
2023/02/14 10:25:23;;;;;;;11.37;10.40;;;16.60;81.60;;;;;;5032672;28;20489;-72
2023/02/14 10:27:52;;;;;;;9.30;8.40;;;16.80;81.40;;;;;;5015378;28;20759;-68
2023/02/14 10:30:20;;;;;;;8.73;7.57;;;17.00;80.50;;;;;;5014728;28;20512;-68
2023/02/14 10:32:48;;;;;;;7.83;7.10;;;17.30;75.90;;;;;;5015394;28;20844;-68
2023/02/14 10:35:17;;;;;;;8.90;8.10;;;17.60;77.20;;;;;;5032251;28;20428;-69
2023/02/14 10:38:01;;;;;;;9.40;8.60;;;17.90;75.70;;;;;;5032670;28;20770;-68
2023/02/14 10:40:46;;;;;;;10.50;9.80;;;18.20;75.30;;;;;;5013365;28;20499;-68
2023/02/14 10:43:22;;;;;;;7.97;7.37;;;18.50;71.10;;;;;;5032649;28;20425;-68
2023/02/14 10:46:08;;;;;;;10.03;9.30;;;18.80;68.00;;;;;;5029349;28;20420;-68
2023/02/14 10:49:01;;;;;;;8.13;7.43;;;18.90;68.20;;;;;;5052583;28;20412;-68
2023/02/14 10:51:47;;;;;;;358.67;252.87;;;19.20;64.90;;;;;;5033997;28;20424;-68
2023/02/14 10:54:24;;;;;;;10.17;9.27;;;19.40;65.50;;;;;;5051935;28;20408;-68
2023/02/14 10:56:54;;;;;;;9.03;8.20;;;19.50;61.30;;;;;;5034978;28;20477;-68
2023/02/14 10:59:48;;;;;;;10.73;9.90;;;19.60;64.50;;;;;;5052002;28;20473;-68
2023/02/14 11:02:17;;;;;;;7.97;7.20;;;19.80;63.20;;;;;;5034172;28;20423;-69
2023/02/14 11:04:45;;;;;;;9.60;8.93;;;20.00;62.60;;;;;;5052604;28;20915;-68
2023/02/14 11:07:20;;;;;;;8.10;7.50;;;20.10;62.50;;;;;;5052027;28;20473;-69
2023/02/14 11:09:46;;;;;;;6.83;6.23;;;20.30;62.00;;;;;;5033776;28;20890;-69
2023/02/14 11:12:31;;;;;;;6.50;6.00;;;20.40;63.10;;;;;;5051840;28;20584;-69
2023/02/14 11:15:12;;;;;;;7.20;6.67;;;20.50;59.10;;;;;;5034897;28;20168;-68
2023/02/14 11:17:38;;;;;;;10.00;9.20;;;20.70;58.60;;;;;;5052408;28;20414;-68
2023/02/14 11:20:25;;;;;;;8.10;7.40;;;20.80;57.30;;;;;;5052346;28;20458;-68
2023/02/14 11:22:51;;;;;;;8.50;7.97;;;20.80;59.20;;;;;;5017859;28;20226;-68
2023/02/14 11:25:27;;;;;;;58.03;42.47;;;20.90;57.80;;;;;;5051698;28;20451;-68
2023/02/14 11:28:14;;;;;;;92.90;66.43;;;21.00;57.60;;;;;;5034525;28;20177;-68
2023/02/14 11:30:44;;;;;;;33.80;27.57;;;21.20;58.40;;;;;;5052712;28;20419;-68
2023/02/14 11:33:29;;;;;;;10.57;9.57;;;21.50;57.60;;;;;;5033650;28;20908;-75
2023/02/14 11:35:55;;;;;;;9.97;9.27;;;21.60;58.40;;;;;;5052473;28;20413;-70
2023/02/14 11:38:27;;;;;;;6.50;6.00;;;21.80;57.90;;;;;;5051624;28;20499;-70
2023/02/14 11:40:55;;;;;;;8.67;8.00;;;22.10;56.40;;;;;;5049436;28;20895;-70
2023/02/14 11:43:50;;;;;;;7.40;6.80;;;22.20;55.10;;;;;;5033145;28;20419;-70
2023/02/14 11:46:19;;;;;;;6.50;5.90;;;22.20;56.00;;;;;;5033351;28;20904;-70
2023/02/14 11:48:55;;;;;;;7.27;6.67;;;22.10;55.30;;;;;;5051923;28;20470;-70
2023/02/14 11:51:33;;;;;;;7.27;5.67;;;22.00;54.00;;;;;;5051724;28;20415;-70
2023/02/14 11:54:03;;;;;;;5.97;5.57;;;21.80;53.60;;;;;;5052003;28;20404;-70
2023/02/14 11:56:55;;;;;;;11.20;6.67;;;21.90;53.90;;;;;;5051244;28;20400;-70
2023/02/14 11:59:30;;;;;;;7.77;7.30;;;21.80;54.70;;;;;;5051471;28;20866;-69
2023/02/14 12:01:59;;;;;;;8.93;8.33;;;21.80;52.10;;;;;;5034174;28;20427;-66
2023/02/14 12:04:38;;;;;;;31.73;22.67;;;21.60;53.80;;;;;;5033546;28;20430;-66
2023/02/14 12:07:24;;;;;;;88.47;64.27;;;21.50;53.40;;;;;;5052246;28;20895;-66
2023/02/14 12:10:06;;;;;;;29.73;26.50;;;21.50;55.00;;;;;;5048499;28;20753;-67
2023/02/14 12:12:38;;;;;;;6.80;6.40;;;21.80;53.30;;;;;;5040438;28;20249;-67
2023/02/14 12:15:35;;;;;;;6.40;6.00;;;21.90;53.70;;;;;;5031449;28;20444;-66
2023/02/14 12:18:15;;;;;;;5.83;5.47;;;21.90;53.50;;;;;;5051465;28;20411;-67
2023/02/14 12:21:08;;;;;;;6.07;5.67;;;21.90;54.10;;;;;;5034102;28;20439;-68
2023/02/14 12:23:49;;;;;;;6.03;5.63;;;22.00;52.60;;;;;;5033515;28;20396;-68
2023/02/14 12:26:33;;;;;;;7.00;6.40;;;22.00;51.90;;;;;;5051453;28;20475;-69
2023/02/14 12:29:04;;;;;;;8.87;6.40;;;21.40;51.40;;;;;;5037524;28;20404;-68
2023/02/14 12:31:30;;;;;;;5.93;5.53;;;21.10;52.10;;;;;;5054257;28;20393;-69
2023/02/14 12:33:56;;;;;;;6.60;6.10;;;21.10;53.30;;;;;;5053518;28;20428;-67
2023/02/14 12:36:48;;;;;;;5.50;5.10;;;21.00;52.60;;;;;;5020273;28;20423;-68
2023/02/14 12:39:29;;;;;;;5.50;5.10;;;21.00;54.10;;;;;;5053482;28;20642;-69
2023/02/14 12:42:34;;;;;;;6.13;5.63;;;21.10;53.30;;;;;;5035041;28;20464;-68
2023/02/14 12:45:11;;;;;;;5.90;5.50;;;20.90;53.40;;;;;;5034877;28;20428;-68
2023/02/14 12:47:36;;;;;;;5.83;5.43;;;20.90;54.70;;;;;;5034340;28;20421;-67
2023/02/14 12:50:17;;;;;;;7.97;7.47;;;20.80;55.20;;;;;;5034807;28;20510;-68
2023/02/14 12:52:54;;;;;;;5.70;5.30;;;20.80;54.30;;;;;;5035258;28;20174;-68
2023/02/14 12:56:03;;;;;;;7.90;7.40;;;20.80;56.30;;;;;;5016643;28;20444;-67
2023/02/14 12:58:35;;;;;;;6.80;6.30;;;20.60;55.60;;;;;;5044157;28;20470;-67
2023/02/14 13:01:16;;;;;;;5.23;4.83;;;20.50;55.40;;;;;;5074507;28;20821;-68
2023/02/14 13:03:49;;;;;;;4.53;4.23;;;20.10;54.20;;;;;;5056737;28;20429;-68
2023/02/14 13:06:22;;;;;;;8.37;7.87;;;20.00;54.80;;;;;;5056221;28;20479;-77
2023/02/14 13:09:20;;;;;;;5.17;4.80;;;20.00;53.90;;;;;;5056650;28;20441;-69
2023/02/14 13:12:28;;;;;;;4.43;4.13;;;19.90;55.90;;;;;;5049780;28;21014;-68
2023/02/14 13:14:59;;;;;;;7.47;6.07;;;19.90;57.40;;;;;;5032619;28;20420;-68
2023/02/14 13:17:46;;;;;;;6.63;6.03;;;19.90;54.10;;;;;;5036068;28;20428;-70
2023/02/14 13:20:31;;;;;;;6.50;5.97;;;20.00;55.90;;;;;;5054400;28;20448;-68
2023/02/14 13:23:02;;;;;;;5.13;4.80;;;20.00;56.00;;;;;;5054182;28;20431;-68
2023/02/14 13:25:33;;;;;;;234.50;161.17;;;20.00;55.50;;;;;;5019450;28;20570;-69
2023/02/14 13:28:05;;;;;;;372.20;293.23;;;20.00;55.40;;;;;;5054494;28;20404;-68
2023/02/14 13:30:33;;;;;;;67.90;53.47;;;20.00;55.50;;;;;;5053992;28;20396;-68
2023/02/14 13:33:06;;;;;;;27.83;25.03;;;20.10;56.30;;;;;;5054240;28;20470;-68
2023/02/14 13:35:33;;;;;;;74.00;54.40;;;20.10;56.90;;;;;;5053789;28;20444;-69